createdAt,value
2022-08-28T00:00:25.773Z,19.90
2022-08-28T00:02:53.297Z,19.80
2022-08-28T00:05:21.712Z,19.70
2022-08-28T00:07:48.803Z,19.80
2022-08-28T00:10:18.784Z,19.80
2022-08-28T00:12:47.002Z,19.90
2022-08-28T00:15:16.978Z,19.80
2022-08-28T00:17:44.082Z,19.70
2022-08-28T00:20:12.881Z,19.80
2022-08-28T00:22:39.842Z,19.70
2022-08-28T00:25:08.618Z,19.60
2022-08-28T00:27:52.415Z,19.60
2022-08-28T00:30:44.379Z,19.60
2022-08-28T00:33:14.371Z,19.70
2022-08-28T00:35:41.885Z,19.80
2022-08-28T00:38:10.120Z,19.70
2022-08-28T00:40:37.248Z,19.70
2022-08-28T00:43:06.895Z,19.60
2022-08-28T00:45:39.338Z,19.60
2022-08-28T00:48:06.708Z,19.60
2022-08-28T00:50:56.792Z,19.60
2022-08-28T00:53:29.964Z,19.60
2022-08-28T00:56:02.682Z,19.60
2022-08-28T00:58:32.015Z,19.50
2022-08-28T01:01:00.465Z,19.50
2022-08-28T01:03:28.294Z,19.40
2022-08-28T01:05:55.459Z,19.50
2022-08-28T01:08:22.974Z,19.50
2022-08-28T01:10:54.372Z,19.60
2022-08-28T01:13:23.322Z,19.70
2022-08-28T01:15:51.289Z,19.70
2022-08-28T01:18:19.395Z,19.70
2022-08-28T01:20:53.822Z,19.60
2022-08-28T01:23:29.010Z,19.60
2022-08-28T01:25:57.368Z,19.70
2022-08-28T01:28:24.027Z,19.60
2022-08-28T01:30:50.616Z,19.50
2022-08-28T01:33:19.424Z,19.50
2022-08-28T01:35:54.472Z,19.50
2022-08-28T01:38:26.731Z,19.50
2022-08-28T01:40:54.553Z,19.50
2022-08-28T01:43:26.162Z,19.30
2022-08-28T01:45:57.354Z,19.30
2022-08-28T01:48:26.331Z,19.30
2022-08-28T01:50:52.934Z,19.40
2022-08-28T01:53:25.163Z,19.30
2022-08-28T01:56:00.402Z,19.30
2022-08-28T01:58:28.241Z,19.30
2022-08-28T02:00:57.358Z,19.30
2022-08-28T02:03:24.191Z,19.20
2022-08-28T02:05:51.320Z,19.30
2022-08-28T02:08:18.161Z,19.30
2022-08-28T02:10:44.954Z,19.30
2022-08-28T02:13:12.594Z,19.30
2022-08-28T02:15:40.803Z,19.20
2022-08-28T02:18:07.518Z,19.20
2022-08-28T02:20:34.501Z,19.20
2022-08-28T02:23:01.137Z,19.20
2022-08-28T02:25:28.194Z,19.30
2022-08-28T02:27:55.507Z,19.10
2022-08-28T02:30:22.257Z,19.20
2022-08-28T02:32:50.300Z,19.20
2022-08-28T02:35:18.707Z,19.10
2022-08-28T02:37:45.973Z,19.10
2022-08-28T02:40:16.343Z,19.10
2022-08-28T02:42:43.300Z,19.10
2022-08-28T02:45:11.590Z,19.20
2022-08-28T02:47:39.859Z,19.10
2022-08-28T02:50:07.623Z,19.10
2022-08-28T02:52:37.691Z,19.10
2022-08-28T02:55:05.835Z,19.10
2022-08-28T02:57:32.669Z,19.20
2022-08-28T02:59:59.749Z,19.10
2022-08-28T03:02:26.435Z,19.10
2022-08-28T03:04:53.813Z,19.00
2022-08-28T03:07:22.590Z,18.90
2022-08-28T03:09:49.899Z,18.80
2022-08-28T03:12:17.038Z,18.80
2022-08-28T03:14:43.643Z,18.70
2022-08-28T03:17:10.271Z,18.70
2022-08-28T03:19:36.858Z,18.70
2022-08-28T03:22:03.571Z,18.80
2022-08-28T03:24:30.330Z,18.80
2022-08-28T03:26:56.962Z,18.80
2022-08-28T03:29:23.557Z,18.80
2022-08-28T03:31:50.419Z,18.90
2022-08-28T03:34:17.034Z,18.80
2022-08-28T03:36:43.970Z,18.90
2022-08-28T03:39:10.578Z,18.80
2022-08-28T03:41:37.301Z,18.90
2022-08-28T03:44:03.967Z,18.90
2022-08-28T03:46:35.122Z,18.80
2022-08-28T03:49:03.745Z,18.80
2022-08-28T03:51:32.935Z,18.70
2022-08-28T03:54:00.782Z,18.70
2022-08-28T03:56:28.829Z,18.70
2022-08-28T03:58:58.421Z,18.60
2022-08-28T04:01:25.740Z,18.80
2022-08-28T04:03:52.562Z,18.80
2022-08-28T04:06:20.031Z,18.80
2022-08-28T04:08:47.630Z,18.70
2022-08-28T04:11:14.301Z,18.80
2022-08-28T04:13:41.850Z,18.70
2022-08-28T04:16:11.662Z,18.70
2022-08-28T04:18:40.393Z,18.70
2022-08-28T04:21:17.754Z,18.80
2022-08-28T04:23:45.766Z,18.80
2022-08-28T04:26:15.454Z,18.80
2022-08-28T04:28:42.309Z,18.80
2022-08-28T04:31:09.010Z,18.70
2022-08-28T04:33:36.407Z,18.70
2022-08-28T04:36:08.864Z,18.70
2022-08-28T04:38:36.814Z,18.80
2022-08-28T04:41:07.860Z,18.80
2022-08-28T04:43:34.975Z,18.90
2022-08-28T04:46:07.064Z,18.90
2022-08-28T04:48:34.967Z,18.80
2022-08-28T04:51:04.605Z,18.80
2022-08-28T04:53:32.683Z,18.80
2022-08-28T04:56:00.558Z,18.80
2022-08-28T04:58:27.543Z,18.80
2022-08-28T05:00:55.096Z,18.90
2022-08-28T05:03:22.804Z,19.00
2022-08-28T05:05:54.093Z,19.00
2022-08-28T05:08:23.238Z,18.90
2022-08-28T05:10:50.770Z,19.00
2022-08-28T05:13:18.502Z,19.00
2022-08-28T05:15:49.037Z,19.00
2022-08-28T05:18:18.552Z,18.90
2022-08-28T05:20:47.641Z,19.00
2022-08-28T05:23:16.042Z,19.20
2022-08-28T05:25:45.551Z,19.10
2022-08-28T05:28:13.697Z,19.10
2022-08-28T05:30:41.867Z,19.00
2022-08-28T05:33:10.052Z,19.30
2022-08-28T05:35:38.713Z,19.20
2022-08-28T05:38:06.710Z,19.10
2022-08-28T05:40:33.719Z,19.20
2022-08-28T05:43:00.508Z,19.20
2022-08-28T05:45:27.131Z,19.20
2022-08-28T05:47:53.942Z,19.20
2022-08-28T05:50:20.522Z,19.30
2022-08-28T05:52:47.371Z,19.20
2022-08-28T05:55:14.634Z,19.30
2022-08-28T05:57:41.734Z,19.30
2022-08-28T06:00:12.555Z,19.20
2022-08-28T06:02:40.421Z,19.10
2022-08-28T06:05:07.595Z,19.10
2022-08-28T06:07:35.002Z,19.20
2022-08-28T06:10:01.729Z,19.20
2022-08-28T06:12:28.317Z,19.10
2022-08-28T06:14:55.104Z,19.00
2022-08-28T06:17:23.932Z,19.00
2022-08-28T06:19:50.886Z,19.00
2022-08-28T06:22:18.373Z,19.10
2022-08-28T06:24:45.039Z,19.10
2022-08-28T06:27:11.667Z,19.10
2022-08-28T06:29:39.709Z,19.20
2022-08-28T06:32:06.486Z,19.50
2022-08-28T06:34:33.333Z,19.50
2022-08-28T06:37:00.521Z,19.70
2022-08-28T06:39:27.302Z,19.80
2022-08-28T06:41:53.972Z,20.00
2022-08-28T06:44:21.569Z,20.20
2022-08-28T06:46:51.289Z,20.30
2022-08-28T06:49:18.229Z,20.20
2022-08-28T06:51:44.904Z,20.30
2022-08-28T06:54:11.779Z,20.30
2022-08-28T06:56:38.448Z,20.20
2022-08-28T06:59:05.377Z,20.10
2022-08-28T07:01:35.239Z,20.00
2022-08-28T07:04:05.762Z,20.10
2022-08-28T07:06:35.030Z,20.30
2022-08-28T07:09:05.009Z,20.40
2022-08-28T07:11:33.719Z,20.40
2022-08-28T07:14:01.210Z,20.40
2022-08-28T07:16:30.927Z,20.30
2022-08-28T07:18:58.916Z,20.30
2022-08-28T07:21:26.677Z,20.20
2022-08-28T07:23:54.706Z,20.20
2022-08-28T07:26:23.674Z,20.30
2022-08-28T07:28:52.584Z,20.50
2022-08-28T07:31:27.383Z,20.60
2022-08-28T07:33:55.057Z,20.70
2022-08-28T07:36:29.180Z,20.70
2022-08-28T07:38:58.419Z,20.80
2022-08-28T07:41:31.272Z,20.80
2022-08-28T07:44:16.524Z,20.90
2022-08-28T07:46:44.363Z,21.00
2022-08-28T07:49:12.005Z,21.10
2022-08-28T07:51:38.617Z,21.10
2022-08-28T07:54:05.578Z,21.10
2022-08-28T07:56:33.191Z,21.40
2022-08-28T07:59:01.353Z,21.70
2022-08-28T08:01:30.845Z,21.70
2022-08-28T08:04:01.427Z,21.70
2022-08-28T08:06:33.240Z,21.60
2022-08-28T08:09:01.772Z,21.50
2022-08-28T08:11:32.246Z,21.50
2022-08-28T08:14:03.879Z,21.50
2022-08-28T08:16:34.557Z,21.60
2022-08-28T08:19:01.762Z,21.50
2022-08-28T08:21:30.505Z,21.70
2022-08-28T08:23:58.549Z,21.70
2022-08-28T08:26:27.981Z,21.90
2022-08-28T08:28:55.179Z,22.20
2022-08-28T08:31:26.619Z,22.50
2022-08-28T08:33:56.230Z,22.20
2022-08-28T08:36:24.738Z,22.20
2022-08-28T08:38:59.467Z,22.50
2022-08-28T08:41:48.138Z,22.50
2022-08-28T08:44:28.005Z,22.90
2022-08-28T08:47:04.979Z,22.80
2022-08-28T08:49:40.557Z,22.20
2022-08-28T08:52:32.037Z,22.30
2022-08-28T08:55:23.204Z,22.90
2022-08-28T08:58:01.901Z,22.50
2022-08-28T09:00:31.488Z,22.80
2022-08-28T09:03:15.973Z,22.80
2022-08-28T09:05:48.157Z,22.90
2022-08-28T09:08:49.041Z,22.80
2022-08-28T09:11:16.312Z,23.00
2022-08-28T09:13:54.176Z,23.10
2022-08-28T09:16:30.947Z,23.20
2022-08-28T09:18:59.211Z,23.20
2022-08-28T09:21:29.498Z,23.10
2022-08-28T09:24:01.260Z,23.10
2022-08-28T09:26:32.298Z,23.40
2022-08-28T09:29:08.483Z,23.70
2022-08-28T09:31:42.073Z,23.30
2022-08-28T09:34:34.335Z,23.30
2022-08-28T09:37:08.188Z,23.40
2022-08-28T09:39:37.792Z,23.30
2022-08-28T09:42:32.319Z,23.30
2022-08-28T09:45:01.111Z,23.40
2022-08-28T09:47:53.978Z,23.40
2022-08-28T09:50:31.873Z,22.90
2022-08-28T09:53:20.508Z,23.20
2022-08-28T09:56:05.115Z,23.50
2022-08-28T09:58:53.384Z,23.60
2022-08-28T10:01:23.100Z,23.30
2022-08-28T10:04:07.353Z,23.10
2022-08-28T10:06:36.903Z,23.30
2022-08-28T10:09:30.179Z,23.50
2022-08-28T10:12:25.406Z,23.80
2022-08-28T10:15:17.785Z,23.70
2022-08-28T10:18:18.179Z,23.50
2022-08-28T10:20:50.325Z,23.50
2022-08-28T10:23:53.990Z,23.70
2022-08-28T10:26:45.528Z,23.90
2022-08-28T10:29:29.415Z,24.10
2022-08-28T10:32:11.196Z,23.90
2022-08-28T10:34:57.891Z,23.70
2022-08-28T10:37:55.760Z,23.90
2022-08-28T10:40:35.948Z,24.50
2022-08-28T10:43:08.464Z,24.60
2022-08-28T10:45:35.516Z,24.50
2022-08-28T10:48:17.544Z,24.70
2022-08-28T10:50:49.102Z,24.50
2022-08-28T10:53:30.317Z,24.70
2022-08-28T10:56:04.163Z,25.00
2022-08-28T10:58:35.797Z,25.20
2022-08-28T11:01:09.996Z,25.30
2022-08-28T11:03:43.865Z,25.40
2022-08-28T11:06:40.760Z,25.40
2022-08-28T11:09:26.982Z,25.30
2022-08-28T11:12:02.190Z,25.10
2022-08-28T11:14:47.551Z,25.00
2022-08-28T11:17:25.164Z,24.40
2022-08-28T11:20:16.559Z,24.50
2022-08-28T11:22:49.531Z,24.70
2022-08-28T11:25:26.485Z,24.30
2022-08-28T11:28:27.482Z,24.90
2022-08-28T11:31:06.176Z,24.90
2022-08-28T11:33:52.954Z,25.00
2022-08-28T11:36:19.853Z,25.40
2022-08-28T11:38:52.386Z,25.60
2022-08-28T11:41:22.338Z,25.50
2022-08-28T11:43:52.357Z,25.30
2022-08-28T11:46:36.545Z,25.70
2022-08-28T11:49:26.227Z,25.70
2022-08-28T11:52:27.243Z,25.40
2022-08-28T11:55:05.919Z,25.70
2022-08-28T12:00:36.010Z,25.90
2022-08-28T12:03:27.529Z,25.70
2022-08-28T12:05:56.735Z,25.60
2022-08-28T12:08:45.900Z,25.80
2022-08-28T12:11:44.824Z,26.30
2022-08-28T12:14:33.219Z,26.40
2022-08-28T12:16:59.760Z,26.50
2022-08-28T12:19:33.795Z,26.50
2022-08-28T12:22:13.783Z,26.10
2022-08-28T12:25:03.043Z,25.60
2022-08-28T12:27:31.429Z,25.80
2022-08-28T12:30:00.702Z,26.00
2022-08-28T12:32:49.613Z,26.00
2022-08-28T12:35:30.154Z,26.20
2022-08-28T12:37:57.362Z,26.50
2022-08-28T12:40:53.178Z,26.50
2022-08-28T12:43:40.942Z,26.30
2022-08-28T12:46:19.479Z,26.60
2022-08-28T12:48:54.605Z,26.70
2022-08-28T12:51:27.116Z,26.60
2022-08-28T12:53:57.533Z,26.50
2022-08-28T12:56:29.876Z,26.80
2022-08-28T12:59:16.769Z,26.70
2022-08-28T13:01:44.410Z,27.00
2022-08-28T13:04:29.843Z,27.60
2022-08-28T13:07:28.396Z,26.90
2022-08-28T13:09:58.831Z,27.00
2022-08-28T13:12:55.913Z,26.70
2022-08-28T13:16:22.073Z,26.70
2022-08-28T13:18:55.398Z,27.10
2022-08-28T13:21:33.927Z,27.80
2022-08-28T13:24:21.409Z,27.50
2022-08-28T13:27:02.998Z,28.30
2022-08-28T13:29:29.986Z,28.20
2022-08-28T13:32:06.928Z,28.80
2022-08-28T13:34:36.606Z,28.50
2022-08-28T13:37:07.245Z,28.80
2022-08-28T13:39:41.406Z,29.00
2022-08-28T13:42:15.665Z,29.10
2022-08-28T13:44:55.828Z,29.40
2022-08-28T13:47:22.471Z,29.60
2022-08-28T13:49:49.173Z,29.90
2022-08-28T13:52:15.948Z,29.80
2022-08-28T13:54:43.670Z,29.50
2022-08-28T13:57:13.349Z,29.50
2022-08-28T13:59:40.022Z,30.00
2022-08-28T14:02:29.366Z,30.10
2022-08-28T14:04:56.155Z,30.00
2022-08-28T14:07:23.488Z,29.70
2022-08-28T14:09:55.504Z,29.60
2022-08-28T14:12:23.097Z,29.40
2022-08-28T14:14:59.887Z,29.60
2022-08-28T14:17:26.586Z,29.20
2022-08-28T14:19:53.214Z,29.30
2022-08-28T14:22:19.873Z,29.80
2022-08-28T14:24:46.719Z,30.00
2022-08-28T14:27:13.322Z,30.30
2022-08-28T14:29:39.949Z,30.80
2022-08-28T14:32:06.781Z,30.80
2022-08-28T14:34:34.594Z,30.70
2022-08-28T14:37:01.905Z,30.70
2022-08-28T14:39:28.769Z,30.80
2022-08-28T14:41:55.473Z,30.90
2022-08-28T14:44:23.952Z,30.80
2022-08-28T14:46:52.740Z,31.00
2022-08-28T14:49:24.058Z,31.20
2022-08-28T14:51:52.699Z,31.20
2022-08-28T14:54:22.551Z,31.20
2022-08-28T14:56:51.163Z,31.30
2022-08-28T14:59:24.285Z,31.30
2022-08-28T15:01:52.430Z,31.10
2022-08-28T15:04:22.668Z,31.40
2022-08-28T15:06:51.310Z,31.60
2022-08-28T15:09:19.016Z,31.40
2022-08-28T15:11:46.269Z,31.40
2022-08-28T15:14:13.207Z,31.50
2022-08-28T15:16:43.688Z,31.10
2022-08-28T15:19:12.291Z,31.50
2022-08-28T15:21:43.303Z,31.70
2022-08-28T15:24:10.866Z,31.50
2022-08-28T15:26:38.135Z,31.40
2022-08-28T15:29:06.874Z,31.20
2022-08-28T15:31:37.037Z,30.80
2022-08-28T15:34:06.525Z,30.70
2022-08-28T15:36:40.819Z,30.80
2022-08-28T15:39:27.095Z,31.00
2022-08-28T15:41:54.348Z,30.90
2022-08-28T15:44:20.989Z,30.80
2022-08-28T15:46:55.967Z,30.60
2022-08-28T15:49:24.189Z,30.70
2022-08-28T15:51:52.011Z,30.60
2022-08-28T15:54:19.579Z,30.80
2022-08-28T15:56:46.246Z,30.50
2022-08-28T15:59:17.598Z,30.40
2022-08-28T16:01:44.622Z,30.10
2022-08-28T16:04:11.513Z,30.00
2022-08-28T16:06:38.084Z,29.90
2022-08-28T16:09:06.911Z,29.80
2022-08-28T16:11:33.951Z,29.30
2022-08-28T16:14:06.858Z,29.20
2022-08-28T16:16:34.062Z,29.30
2022-08-28T16:19:00.722Z,29.20
2022-08-28T16:21:28.282Z,29.00
2022-08-28T16:23:55.418Z,28.60
2022-08-28T16:26:22.490Z,28.60
2022-08-28T16:28:49.166Z,28.20
2022-08-28T16:31:19.892Z,28.00
2022-08-28T16:33:48.501Z,27.80
2022-08-28T16:36:15.942Z,27.90
2022-08-28T16:38:45.519Z,27.70
2022-08-28T16:41:23.693Z,27.60
2022-08-28T16:43:54.765Z,27.50
2022-08-28T16:46:23.850Z,27.30
2022-08-28T16:48:51.793Z,27.20
2022-08-28T16:51:19.823Z,27.20
2022-08-28T16:53:46.673Z,27.30
2022-08-28T16:56:15.593Z,27.20
2022-08-28T16:58:43.521Z,27.00
2022-08-28T17:01:11.792Z,26.90
2022-08-28T17:03:39.734Z,26.80
2022-08-28T17:06:12.642Z,26.70
2022-08-28T17:08:39.686Z,26.60
2022-08-28T17:11:06.719Z,26.50
2022-08-28T17:13:34.496Z,26.50
2022-08-28T17:16:01.390Z,26.30
2022-08-28T17:18:28.062Z,26.20
2022-08-28T17:21:13.488Z,26.10
2022-08-28T17:23:40.116Z,26.00
2022-08-28T17:26:06.779Z,26.00
2022-08-28T17:28:34.500Z,25.90
2022-08-28T17:31:01.199Z,25.90
2022-08-28T17:33:28.236Z,25.70
2022-08-28T17:35:55.597Z,25.60
2022-08-28T17:38:22.290Z,25.50
2022-08-28T17:40:48.845Z,25.50
2022-08-28T17:43:15.534Z,25.40
2022-08-28T17:45:42.097Z,25.40
2022-08-28T17:48:08.817Z,25.40
2022-08-28T17:50:35.471Z,25.30
2022-08-28T17:53:02.135Z,25.20
2022-08-28T17:55:29.251Z,25.10
2022-08-28T17:57:55.842Z,25.10
2022-08-28T18:00:22.579Z,25.00
2022-08-28T18:02:51.891Z,24.90
2022-08-28T18:05:18.564Z,24.70
2022-08-28T18:07:45.400Z,24.60
2022-08-28T18:10:12.612Z,24.50
2022-08-28T18:12:40.301Z,24.40
2022-08-28T18:15:09.693Z,24.40
2022-08-28T18:17:37.994Z,24.30
2022-08-28T18:20:07.136Z,24.20
2022-08-28T18:22:33.790Z,24.20
2022-08-28T18:25:00.520Z,24.10
2022-08-28T18:27:28.503Z,24.00
2022-08-28T18:29:55.273Z,23.90
2022-08-28T18:32:21.926Z,23.90
2022-08-28T18:34:49.072Z,23.70
2022-08-28T18:37:16.444Z,23.70
2022-08-28T18:39:43.531Z,23.50
2022-08-28T18:42:10.925Z,23.40
2022-08-28T18:44:37.595Z,23.40
2022-08-28T18:47:04.348Z,23.30
2022-08-28T18:49:30.954Z,23.40
2022-08-28T18:51:57.786Z,23.30
2022-08-28T18:54:24.514Z,23.20
2022-08-28T18:56:51.753Z,23.10
2022-08-28T18:59:19.066Z,23.10
2022-08-28T19:01:45.903Z,23.00
2022-08-28T19:04:12.754Z,23.00
2022-08-28T19:06:40.985Z,22.80
2022-08-28T19:09:07.730Z,22.80
2022-08-28T19:11:35.743Z,22.70
2022-08-28T19:14:03.883Z,22.80
2022-08-28T19:16:31.810Z,22.60
2022-08-28T19:18:58.594Z,22.60
2022-08-28T19:21:26.215Z,22.60
2022-08-28T19:23:56.155Z,22.60
2022-08-28T19:26:27.440Z,22.50
2022-08-28T19:28:54.623Z,22.40
2022-08-28T19:31:22.420Z,22.30
2022-08-28T19:33:49.306Z,22.30
2022-08-28T19:36:17.198Z,22.30
2022-08-28T19:38:43.901Z,22.30
2022-08-28T19:41:11.825Z,22.20
2022-08-28T19:43:44.478Z,22.10
2022-08-28T19:46:18.494Z,22.10
2022-08-28T19:48:49.463Z,22.00
2022-08-28T19:51:17.555Z,21.90
2022-08-28T19:53:56.742Z,22.00
2022-08-28T19:56:27.043Z,22.00
2022-08-28T19:58:54.998Z,21.90
2022-08-28T20:01:21.799Z,21.90
2022-08-28T20:03:48.464Z,21.80
2022-08-28T20:06:15.017Z,21.70
2022-08-28T20:08:41.771Z,21.70
2022-08-28T20:11:09.619Z,21.70
2022-08-28T20:13:36.314Z,21.60
2022-08-28T20:16:04.901Z,21.50
2022-08-28T20:18:31.518Z,21.60
2022-08-28T20:20:58.140Z,21.50
2022-08-28T20:23:25.025Z,21.40
2022-08-28T20:25:51.709Z,21.40
2022-08-28T20:28:19.026Z,21.40
2022-08-28T20:30:46.731Z,21.30
2022-08-28T20:33:13.810Z,21.10
2022-08-28T20:35:40.573Z,21.10
2022-08-28T20:38:07.347Z,21.10
2022-08-28T20:40:34.171Z,21.10
2022-08-28T20:43:00.978Z,21.20
2022-08-28T20:45:28.065Z,21.00
2022-08-28T20:47:54.838Z,20.90
2022-08-28T20:50:21.437Z,20.80
2022-08-28T20:52:48.019Z,20.80
2022-08-28T20:55:14.778Z,20.90
2022-08-28T20:57:41.480Z,20.90
2022-08-28T21:00:09.944Z,20.80
2022-08-28T21:02:37.101Z,20.80
2022-08-28T21:05:05.326Z,20.70
2022-08-28T21:07:33.930Z,20.70
2022-08-28T21:10:06.773Z,20.60
2022-08-28T21:12:38.639Z,20.50
2022-08-28T21:15:07.555Z,20.50
2022-08-28T21:17:34.530Z,20.50
2022-08-28T21:20:10.276Z,20.40
2022-08-28T21:22:38.230Z,20.20
2022-08-28T21:25:08.987Z,20.20
2022-08-28T21:27:36.355Z,20.30
2022-08-28T21:30:04.831Z,20.20
2022-08-28T21:32:33.747Z,20.00
2022-08-28T21:35:02.145Z,19.90
2022-08-28T21:37:28.807Z,19.80
2022-08-28T21:39:56.359Z,19.90
2022-08-28T21:42:23.803Z,19.90
2022-08-28T21:44:51.801Z,19.90
2022-08-28T21:47:21.202Z,19.90
2022-08-28T21:49:50.003Z,19.80
2022-08-28T21:52:18.249Z,19.90
2022-08-28T21:54:45.019Z,19.80
2022-08-28T21:57:11.702Z,19.80
2022-08-28T21:59:38.846Z,19.70
2022-08-28T22:02:06.121Z,19.70
2022-08-28T22:04:33.694Z,19.80
2022-08-28T22:07:00.329Z,19.70
2022-08-28T22:09:27.418Z,19.80
2022-08-28T22:11:54.086Z,19.80
2022-08-28T22:14:20.926Z,19.80
2022-08-28T22:16:47.675Z,19.70
2022-08-28T22:19:14.349Z,19.60
2022-08-28T22:21:59.634Z,19.70
2022-08-28T22:24:26.225Z,19.60
2022-08-28T22:26:57.362Z,19.60
2022-08-28T22:29:24.515Z,19.60
2022-08-28T22:31:51.222Z,19.30
2022-08-28T22:34:18.275Z,19.30
2022-08-28T22:36:44.830Z,19.30
2022-08-28T22:39:11.418Z,19.40
2022-08-28T22:41:38.590Z,19.30
2022-08-28T22:44:06.411Z,19.20
2022-08-28T22:46:32.985Z,19.20
2022-08-28T22:48:59.558Z,19.20
2022-08-28T22:51:26.127Z,19.10
2022-08-28T22:53:52.794Z,19.10
2022-08-28T22:56:19.530Z,19.10
2022-08-28T22:58:46.303Z,19.10
2022-08-28T23:01:20.079Z,19.00
2022-08-28T23:03:47.655Z,18.90
2022-08-28T23:06:14.342Z,19.00
2022-08-28T23:08:41.154Z,18.70
2022-08-28T23:11:08.524Z,18.80
2022-08-28T23:13:35.815Z,18.80
2022-08-28T23:16:02.926Z,18.70
2022-08-28T23:18:41.588Z,18.60
2022-08-28T23:21:18.557Z,18.70
2022-08-28T23:23:45.759Z,18.60
2022-08-28T23:26:13.895Z,18.50
2022-08-28T23:28:41.578Z,18.50
2022-08-28T23:31:08.669Z,18.50
2022-08-28T23:33:35.406Z,18.40
2022-08-28T23:36:02.273Z,18.50
2022-08-28T23:38:28.844Z,18.50
2022-08-28T23:40:55.447Z,18.50
2022-08-28T23:43:22.349Z,18.60
2022-08-28T23:45:49.321Z,18.60
2022-08-28T23:48:16.026Z,18.60
2022-08-28T23:50:43.157Z,18.40
2022-08-28T23:53:10.771Z,18.40
2022-08-28T23:55:37.811Z,18.30
2022-08-28T23:58:05.687Z,18.20
